createdAt,value
2018-07-27T00:05:01.243Z,13.28
2018-07-27T00:10:56.251Z,11.77
2018-07-27T00:16:51.264Z,12.71
2018-07-27T00:22:46.297Z,12.52
2018-07-27T00:28:41.282Z,11.11
2018-07-27T00:34:36.299Z,12.22
2018-07-27T00:40:31.280Z,9.6
2018-07-27T00:46:26.255Z,11.38
2018-07-27T00:52:21.250Z,11.76
2018-07-27T00:58:16.264Z,11
2018-07-27T01:04:11.252Z,12.32
2018-07-27T01:10:06.294Z,11.28
2018-07-27T01:16:01.320Z,14.27
2018-07-27T01:21:56.279Z,10.96
2018-07-27T01:27:51.284Z,12.41
2018-07-27T01:33:46.280Z,10.79
2018-07-27T01:39:41.307Z,14.32
2018-07-27T01:45:36.286Z,25.03
2018-07-27T01:51:31.294Z,11.78
2018-07-27T01:57:26.305Z,13.97
2018-07-27T02:03:21.307Z,10.35
2018-07-27T02:09:16.331Z,12.19
2018-07-27T02:15:11.318Z,11.53
2018-07-27T02:21:06.310Z,14.5
2018-07-27T02:27:01.378Z,12.24
2018-07-27T02:32:56.333Z,12.79
2018-07-27T02:38:51.318Z,12.75
2018-07-27T02:44:46.402Z,13.25
2018-07-27T02:50:41.344Z,12.58
2018-07-27T02:56:36.363Z,12.16
2018-07-27T03:02:31.419Z,11.37
2018-07-27T03:08:26.333Z,15.64
2018-07-27T03:14:21.358Z,14.05
2018-07-27T03:20:16.381Z,11.25
2018-07-27T03:26:11.381Z,10.71
2018-07-27T03:32:06.385Z,14.81
2018-07-27T03:38:01.395Z,12.43
2018-07-27T03:43:56.369Z,13.9
2018-07-27T03:49:51.374Z,13.66
2018-07-27T03:55:46.378Z,11.77
2018-07-27T04:01:41.378Z,13.73
2018-07-27T04:07:36.407Z,13.32
2018-07-27T04:13:31.408Z,12.94
2018-07-27T04:19:26.387Z,13.43
2018-07-27T04:25:21.444Z,10.78
2018-07-27T04:31:16.414Z,12.27
2018-07-27T04:37:11.434Z,13.73
2018-07-27T04:43:06.408Z,13.66
2018-07-27T04:49:01.484Z,17.49
2018-07-27T04:54:56.408Z,11.84
2018-07-27T05:00:51.429Z,11.35
2018-07-27T05:06:46.455Z,11.71
2018-07-27T05:12:41.469Z,11.97
2018-07-27T05:18:36.497Z,15.67
2018-07-27T05:24:31.502Z,17.08
2018-07-27T05:30:26.446Z,14.65
2018-07-27T05:36:21.470Z,13.62
2018-07-27T05:42:16.459Z,15.7
2018-07-27T05:48:11.456Z,16.37
2018-07-27T05:54:06.497Z,15.72
2018-07-27T06:00:01.498Z,15.33
2018-07-27T06:05:56.465Z,17.26
2018-07-27T06:11:51.478Z,18.15
2018-07-27T06:17:46.514Z,16.19
2018-07-27T06:23:41.569Z,20.41
2018-07-27T06:29:36.491Z,14.34
2018-07-27T06:35:31.550Z,14.36
2018-07-27T06:41:26.529Z,15.36
2018-07-27T06:47:21.543Z,16.6
2018-07-27T06:53:16.504Z,15.2
2018-07-27T06:59:11.512Z,16.18
2018-07-27T07:05:06.556Z,12.93
2018-07-27T07:11:01.523Z,15.49
2018-07-27T07:16:56.538Z,14.59
2018-07-27T07:22:51.518Z,12.84
2018-07-27T07:28:46.531Z,12.03
2018-07-27T07:34:41.538Z,13.95
2018-07-27T07:40:36.541Z,9.44
2018-07-27T07:46:31.539Z,10.48
2018-07-27T07:52:26.544Z,9.97
2018-07-27T07:58:21.574Z,8.8
2018-07-27T08:04:16.607Z,13.42
2018-07-27T08:10:11.576Z,10.42
2018-07-27T08:16:06.554Z,12.23
2018-07-27T08:22:01.618Z,9.73
2018-07-27T08:27:56.586Z,10.06
2018-07-27T08:33:51.646Z,9.98
2018-07-27T08:39:46.748Z,7.86
2018-07-27T08:45:41.624Z,9.8
2018-07-27T08:51:36.617Z,8.52
2018-07-27T08:57:31.608Z,7.89
2018-07-27T09:03:26.591Z,8.69
2018-07-27T09:09:21.649Z,10.34
2018-07-27T09:15:16.615Z,8.05
2018-07-27T09:21:11.613Z,11.65
2018-07-27T09:27:06.672Z,7.32
2018-07-27T09:33:01.649Z,7.02
2018-07-27T09:38:56.632Z,7.12
2018-07-27T09:44:51.639Z,7.92
2018-07-27T09:50:46.647Z,7.71
2018-07-27T09:56:41.674Z,5.88
2018-07-27T10:02:36.647Z,4.45
2018-07-27T10:08:31.649Z,5.32
2018-07-27T10:14:26.666Z,4.2
2018-07-27T10:20:21.678Z,8.13
2018-07-27T10:26:16.741Z,5.67
2018-07-27T10:32:11.686Z,5.6
2018-07-27T10:38:06.686Z,5.11
2018-07-27T10:44:01.687Z,4.85
2018-07-27T10:49:56.838Z,5.73
2018-07-27T10:55:51.686Z,7.39
2018-07-27T11:01:46.730Z,3.69
2018-07-27T11:07:41.700Z,4.95
2018-07-27T11:13:36.707Z,5.29
2018-07-27T11:19:31.708Z,4.27
2018-07-27T11:25:26.726Z,3.11
2018-07-27T11:31:21.763Z,2.86
2018-07-27T11:37:16.743Z,3.27
2018-07-27T11:43:11.728Z,14.53
2018-07-27T11:49:06.718Z,2.7
2018-07-27T11:55:01.745Z,2.67
2018-07-27T12:00:56.751Z,3.24
2018-07-27T12:06:51.802Z,2.77
2018-07-27T12:12:46.736Z,2.88
2018-07-27T12:18:41.824Z,4.05
2018-07-27T12:24:36.780Z,15.92
2018-07-27T12:30:31.807Z,3.29
2018-07-27T12:36:26.763Z,1.81
2018-07-27T12:42:21.764Z,2.28
2018-07-27T12:48:16.784Z,2.48
2018-07-27T12:54:11.798Z,3.04
2018-07-27T13:00:06.814Z,2.56
2018-07-27T13:06:01.811Z,7.41
2018-07-27T13:11:56.816Z,3.31
2018-07-27T13:17:51.803Z,3.49
2018-07-27T13:23:46.853Z,6.11
2018-07-27T13:29:41.806Z,3.3
2018-07-27T13:35:36.818Z,4.03
2018-07-27T13:41:31.856Z,3.95
2018-07-27T13:47:26.834Z,4.08
2018-07-27T13:53:21.838Z,4.66
2018-07-27T13:59:16.855Z,7.69
2018-07-27T14:05:11.838Z,4.35
2018-07-27T14:11:06.841Z,4.69
2018-07-27T14:17:02.233Z,5.2
2018-07-27T14:22:56.844Z,3.96
2018-07-27T14:28:51.895Z,5.57
2018-07-27T14:34:46.871Z,4.78
2018-07-27T14:40:41.916Z,4.84
2018-07-27T14:46:36.914Z,4.61
2018-07-27T14:52:32.122Z,6.05
2018-07-27T14:58:26.895Z,6.99
2018-07-27T15:04:21.874Z,5.2
2018-07-27T15:10:16.880Z,6.95
2018-07-27T15:16:11.902Z,6.11
2018-07-27T15:22:06.953Z,6.59
2018-07-27T15:28:01.905Z,7.83
2018-07-27T15:33:56.914Z,6.13
2018-07-27T15:39:51.918Z,7.11
2018-07-27T15:45:46.977Z,7.36
2018-07-27T15:51:41.925Z,7.66
2018-07-27T15:57:36.955Z,7.25
2018-07-27T16:03:31.935Z,7.66
2018-07-27T16:09:26.934Z,10.72
2018-07-27T16:15:21.943Z,11.78
2018-07-27T16:21:17.013Z,8.85
2018-07-27T16:27:12.035Z,9.56
2018-07-27T16:33:06.947Z,8.56
2018-07-27T16:39:01.962Z,11.56
2018-07-27T16:44:56.960Z,8.98
2018-07-27T16:50:51.955Z,13.88
2018-07-27T16:56:47.048Z,8.89
2018-07-27T17:02:41.996Z,10.38
2018-07-27T17:08:37.006Z,11.16
2018-07-27T17:14:31.984Z,8.77
2018-07-27T17:20:26.982Z,8.86
2018-07-27T17:26:22.041Z,12.28
2018-07-27T17:32:17.073Z,9.4
2018-07-27T17:38:12.032Z,11.72
2018-07-27T17:44:07.016Z,10.71
2018-07-27T17:50:02.106Z,10.07
2018-07-27T17:55:57.031Z,12.21
2018-07-27T18:01:52.048Z,9.2
2018-07-27T18:07:47.134Z,9.75
2018-07-27T18:13:42.031Z,9.1
2018-07-27T18:19:37.030Z,11.13
2018-07-27T18:25:32.072Z,10.52
2018-07-27T18:31:27.066Z,10.5
2018-07-27T18:37:22.083Z,8.79
2018-07-27T18:43:17.036Z,14.4
2018-07-27T18:49:12.134Z,10.83
2018-07-27T18:55:07.104Z,12.68
2018-07-27T19:01:02.094Z,12.46
2018-07-27T19:06:57.124Z,10.83
2018-07-27T19:12:52.149Z,13.03
2018-07-27T19:18:47.101Z,9.6
2018-07-27T19:24:42.083Z,11.06
2018-07-27T19:30:37.105Z,12.49
2018-07-27T19:36:32.079Z,9.96
2018-07-27T19:42:27.096Z,10.53
2018-07-27T19:48:22.116Z,10.83
2018-07-27T19:54:17.111Z,12.18
2018-07-27T20:00:12.110Z,10.28
2018-07-27T20:06:07.111Z,13.15
2018-07-27T20:12:02.109Z,11.91
2018-07-27T20:17:57.133Z,12.45
2018-07-27T20:23:52.113Z,14.11
2018-07-27T20:29:47.145Z,12.42
2018-07-27T20:35:42.131Z,12.71
2018-07-27T20:41:37.133Z,14.4
2018-07-27T20:47:32.177Z,14.76
2018-07-27T20:53:27.147Z,15.45
2018-07-27T20:59:22.144Z,12.69
2018-07-27T21:05:17.172Z,12.78
2018-07-27T21:11:12.191Z,14.03
2018-07-27T21:17:07.273Z,13.62
2018-07-27T21:23:02.177Z,15.88
2018-07-27T21:28:57.176Z,15.47
2018-07-27T21:34:52.157Z,17.6
2018-07-27T21:40:47.187Z,15.57
2018-07-27T21:46:42.200Z,13.98
2018-07-27T21:52:37.209Z,16.35
2018-07-27T21:58:32.210Z,14.59
2018-07-27T22:04:27.241Z,14.7
2018-07-27T22:10:22.208Z,13.55
2018-07-27T22:16:17.246Z,14.07
2018-07-27T22:22:12.204Z,15.2
2018-07-27T22:28:07.228Z,17.48
2018-07-27T22:34:02.290Z,18.74
2018-07-27T22:39:57.217Z,17.65
2018-07-27T22:45:52.224Z,15.26
2018-07-27T22:51:47.235Z,17.37
2018-07-27T22:57:42.251Z,16.85
2018-07-27T23:03:37.254Z,18.27
2018-07-27T23:09:32.221Z,19.18
2018-07-27T23:15:27.257Z,18.61
2018-07-27T23:21:22.274Z,18.11
2018-07-27T23:27:17.287Z,18.23
2018-07-27T23:33:12.262Z,17.59
2018-07-27T23:39:07.262Z,20.11
2018-07-27T23:45:02.269Z,20.41
2018-07-27T23:50:57.270Z,19.45
2018-07-27T23:56:52.279Z,21.71
